Flinterborg — PHPH — position and weather

sailwx.info

Track history (hours):
 
Tides and Currents Weather Stations Pressure Air Temp Water Temp Dewpoint Dewpoint Depression Visibility Wind Speed Wind Dir Waves Ship Positions

Flinterborg

Last reported at 2017-Jul-23 00:35 UTC. Time now 2017-Jul-24 02:30 UTC.
Position N 49°34' W 003°59'.

Length 111 m; draft 6.4 m.

Type: Cargo ship. MMSI: 245433000.

Date/timePositionNaut miles runAvg speedWind from/ knotsBaromVisibWave heightAir tempDewpointWater temp
2017-Jul-23 00:35N 49°34' W 003°59'111.1
2017-Jul-23 00:30N 49°34' W 003°57'611.3
2017-Jul-22 23:59N 49°37' W 003°50'611.5
2017-Jul-22 23:30N 49°40' W 003°42'611.6
2017-Jul-22 23:00N 49°43' W 003°35'611.3
2017-Jul-22 22:30N 49°46' W 003°27'510.7
2017-Jul-22 22:01N 49°48' W 003°20'510.2
2017-Jul-22 21:30N 49°51' W 003°13'5 9.5
2017-Jul-22 20:57N 49°54' W 003°06'4 9.0
2017-Jul-22 20:30N 49°56' W 003°01'4 8.2
2017-Jul-22 20:00N 49°58' W 002°55'4 7.7
2017-Jul-22 19:30N 49°59' W 002°49'9610.3
2017-Jul-22 10:10N 50°27' W 000°25'210.3
2017-Jul-22 10:00N 50°27' W 000°23'5 9.9
2017-Jul-22 09:30N 50°29' W 000°15'5 9.4
2017-Jul-22 09:00N 50°30' W 000°08'4 8.8
2017-Jul-22 08:30N 50°32' W 000°02'4 8.4
2017-Jul-22 08:00N 50°33' E 000°05'4 8.2
2017-Jul-22 07:30N 50°34' E 000°11'4 8.2
2017-Jul-22 07:00N 50°35' E 000°17'8 8.8
2017-Jul-22 06:09N 50°38' E 000°28'2 9.8
2017-Jul-22 05:59N 50°38' E 000°31'510.2
2017-Jul-22 05:30N 50°40' E 000°38'510.7
2017-Jul-22 05:00N 50°43' E 000°45'2511.3
2017-Jul-22 02:47N 50°58' E 001°16'410.7
2017-Jul-22 02:25N 51°01' E 001°21'410.3
2017-Jul-22 02:00N 51°04' E 001°26'510.1
2017-Jul-22 01:30N 51°07' E 001°32'4 9.0
2017-Jul-22 01:00N 51°10' E 001°38'4 8.7
2017-Jul-22 00:30N 51°13' E 001°43'4 8.8
2017-Jul-22 00:00N 51°16' E 001°47'4 8.6
2017-Jul-21 23:30N 51°20' E 001°51'4 9.0
2017-Jul-21 23:01N 51°23' E 001°55'5 9.2
2017-Jul-21 22:31N 51°27' E 002°00'5 9.9
2017-Jul-21 22:01N 51°30' E 002°06'510.2
2017-Jul-21 21:31N 51°34' E 002°11'610.8
2017-Jul-21 20:57N 51°38' E 002°18'711.6
2017-Jul-21 20:22N 51°43' E 002°26'3511.7
2017-Jul-21 17:24N 52°02' E 003°13'820.4
2017-Jul-21 17:00N 52°03' E 003°27'4 7.7
2017-Jul-21 16:27N 52°03' E 003°33'4 8.1
2017-Jul-21 16:00N 52°03' E 003°39'611.1
2017-Jul-21 15:30N 52°03' E 003°48'5 9.7
2017-Jul-21 15:00N 52°02' E 003°56'611.2
2017-Jul-21 14:30N 51°59' E 004°04'611.2
2017-Jul-21 14:00N 51°56' E 004°12'510.0
2017-Jul-21 13:30N 51°54' E 004°19'3 6.2
2017-Jul-21 13:00N 51°54' E 004°24'0 0.0
2017-Jul-21 12:30N 51°54' E 004°24'0 0.0
2017-Jul-21 12:00N 51°54' E 004°24'0 0.0
2017-Jul-21 11:30N 51°54' E 004°24'0 0.0
2017-Jul-21 11:00N 51°54' E 004°24'0 0.0
2017-Jul-21 10:30N 51°54' E 004°24'0 0.0
2017-Jul-21 10:00N 51°54' E 004°24'0 0.0
2017-Jul-21 09:31N 51°54' E 004°24'0 0.0
2017-Jul-21 09:00N 51°54' E 004°24'0 0.0
2017-Jul-21 08:30N 51°54' E 004°24'0 0.0
2017-Jul-21 08:00N 51°54' E 004°24'0 0.0
2017-Jul-21 07:30N 51°54' E 004°24'0 0.2
2017-Jul-21 07:00N 51°54' E 004°24'0 0.2
2017-Jul-21 06:30N 51°54' E 004°24'0 0.0
2017-Jul-21 06:00N 51°54' E 004°24'0 0.0
2017-Jul-21 05:30N 51°54' E 004°24'0 0.0
2017-Jul-21 05:00N 51°54' E 004°24'0 0.0
2017-Jul-21 03:00N 51°54' E 004°24'0 0.0
2017-Jul-21 02:30N 51°54' E 004°24'0 0.0
2017-Jul-21 02:00N 51°54' E 004°24'0 0.0
2017-Jul-21 01:30N 51°54' E 004°24'0 0.0
2017-Jul-21 01:00N 51°54' E 004°24'0 0.0
2017-Jul-21 00:30N 51°54' E 004°24'0 0.0
2017-Jul-21 00:00N 51°54' E 004°24'0 0.0
2017-Jul-20 23:30N 51°54' E 004°24'0 0.0
2017-Jul-20 23:00N 51°54' E 004°24'0 0.0
2017-Jul-20 22:30N 51°54' E 004°24'0 0.0
2017-Jul-20 22:00N 51°54' E 004°24'0 0.0
2017-Jul-20 21:30N 51°54' E 004°24'0 0.0
2017-Jul-20 21:00N 51°54' E 004°24'0 0.0
2017-Jul-20 20:30N 51°54' E 004°24'0 0.0
2017-Jul-20 20:00N 51°54' E 004°24'0 0.0
2017-Jul-20 19:30N 51°54' E 004°24'0 0.0
2017-Jul-20 19:00N 51°54' E 004°24'0 0.0
2017-Jul-20 18:30N 51°54' E 004°24'0 0.0
2017-Jul-20 18:00N 51°54' E 004°24'0 0.0
2017-Jul-20 17:30N 51°54' E 004°24'0 0.0
2017-Jul-20 17:00N 51°54' E 004°24'0 0.0
2017-Jul-20 16:30N 51°54' E 004°24'0 0.0
2017-Jul-20 16:00N 51°54' E 004°24'0 0.0
2017-Jul-20 15:30N 51°54' E 004°24'0 0.0
2017-Jul-20 15:00N 51°54' E 004°24'0 0.0
2017-Jul-20 14:00N 51°54' E 004°24'0 0.0
2017-Jul-20 13:30N 51°54' E 004°24'0 0.0
2017-Jul-20 13:00N 51°54' E 004°24'0 0.0
2017-Jul-20 12:30N 51°54' E 004°24'0 0.0
2017-Jul-20 11:59N 51°54' E 004°24'0 0.0
2017-Jul-20 11:30N 51°54' E 004°24'0 0.0
2017-Jul-20 11:00N 51°54' E 004°24'0 0.0
2017-Jul-20 10:30N 51°54' E 004°24'0 0.0
2017-Jul-20 10:00N 51°54' E 004°24'0 0.0
2017-Jul-20 09:31N 51°54' E 004°24'0 0.0
2017-Jul-20 09:00N 51°54' E 004°24'0 0.0
2017-Jul-20 08:30N 51°54' E 004°24'0 0.0
2017-Jul-20 08:00N 51°54' E 004°24'0 0.0
2017-Jul-20 07:30N 51°54' E 004°24'0 0.0
2017-Jul-20 07:00N 51°54' E 004°24'0 0.0
2017-Jul-20 06:29N 51°54' E 004°24'0 0.0
2017-Jul-20 06:00N 51°54' E 004°24'0 0.0
2017-Jul-20 05:30N 51°54' E 004°24'0 0.0
2017-Jul-20 05:00N 51°54' E 004°24'0 0.0
2017-Jul-20 04:30N 51°54' E 004°24'0 0.0
2017-Jul-20 04:00N 51°54' E 004°24'0 0.0
2017-Jul-20 03:29N 51°54' E 004°24'0 0.0
2017-Jul-20 03:00N 51°54' E 004°24'0 0.0
2017-Jul-20 02:31N 51°54' E 004°24'0 0.0
2017-Jul-20 02:00N 51°54' E 004°24'0 0.0
2017-Jul-20 01:30N 51°54' E 004°24'0 0.0
2017-Jul-20 01:00N 51°54' E 004°24'0 0.0
2017-Jul-20 00:30N 51°54' E 004°24'0 0.0
2017-Jul-20 00:00N 51°54' E 004°24'0 0.0
2017-Jul-19 23:30N 51°54' E 004°24'0 0.0
2017-Jul-19 23:00N 51°54' E 004°24'0 0.0
2017-Jul-19 22:30N 51°54' E 004°24'0 0.0
2017-Jul-19 22:00N 51°54' E 004°24'0 0.0
2017-Jul-19 21:30N 51°54' E 004°24'0 0.0
2017-Jul-19 21:00N 51°54' E 004°24'0 0.0
2017-Jul-19 20:31N 51°54' E 004°24'0 0.0
2017-Jul-19 20:00N 51°54' E 004°24'0 0.4
2017-Jul-19 19:30N 51°54' E 004°24'3 6.9
2017-Jul-19 19:00N 51°54' E 004°18'510.5
2017-Jul-19 18:30N 51°57' E 004°11'5 9.4
2017-Jul-19 18:00N 51°59' E 004°04'511.1
2017-Jul-19 17:30N 52°00' E 003°56'610.8
2017-Jul-19 17:00N 52°01' E 003°47'1223.1
2017-Jul-19 16:30N 52°12' E 003°47'1 2.0
2017-Jul-19 16:00N 52°13' E 003°47'713.6
2017-Jul-19 15:30N 52°20' E 003°48'713.2
2017-Jul-19 15:00N 52°26' E 003°51'611.5
2017-Jul-19 14:30N 52°31' E 003°56'611.9
2017-Jul-19 13:59N 52°31' E 004°07'611.8
2017-Jul-19 13:30N 52°30' E 004°16'612.3
2017-Jul-19 13:00N 52°29' E 004°26'510.4
2017-Jul-19 12:30N 52°28' E 004°34'2 3.2
2017-Jul-19 12:00N 52°28' E 004°37'1 2.1
2017-Jul-19 11:30N 52°28' E 004°38'4 9.0
2017-Jul-19 11:00N 52°26' E 004°45'3 6.5
2017-Jul-19 10:31N 52°24' E 004°49'0 0.0
2017-Jul-19 10:00N 52°24' E 004°49'0 0.0
2017-Jul-19 09:27N 52°24' E 004°49'0 0.0
2017-Jul-19 09:00N 52°24' E 004°49'0 0.0
2017-Jul-19 08:30N 52°24' E 004°49'0 0.0
2017-Jul-19 08:00N 52°24' E 004°49'0 0.0
2017-Jul-19 07:29N 52°24' E 004°49'0 0.0
2017-Jul-19 06:59N 52°24' E 004°49'0 0.0
2017-Jul-19 06:29N 52°24' E 004°49'0 0.0
2017-Jul-19 05:56N 52°24' E 004°49'0 0.0
2017-Jul-19 05:28N 52°24' E 004°49'0 0.0
2017-Jul-19 04:58N 52°24' E 004°49'0 0.0
2017-Jul-19 04:22N 52°24' E 004°49'0 0.0
2017-Jul-19 03:58N 52°24' E 004°49'0 0.0
2017-Jul-19 03:28N 52°24' E 004°49'0 0.0
2017-Jul-19 03:00N 52°24' E 004°49'0 0.0
2017-Jul-19 02:30N 52°24' E 004°49'0 0.0
2017-Jul-19 02:00N 52°24' E 004°49'0 0.0
2017-Jul-19 01:30N 52°24' E 004°49'0 0.0
2017-Jul-19 01:00N 52°24' E 004°49'0 0.0
2017-Jul-19 00:29N 52°24' E 004°49'0 0.0
2017-Jul-18 23:59N 52°24' E 004°49'0 0.0
2017-Jul-18 23:26N 52°24' E 004°49'0 0.0
2017-Jul-18 22:56N 52°24' E 004°49'0 0.0
2017-Jul-18 22:28N 52°24' E 004°49'0 0.0
2017-Jul-18 21:58N 52°24' E 004°49'0 0.0
2017-Jul-18 21:28N 52°24' E 004°49'0 0.0
2017-Jul-18 21:01N 52°24' E 004°49'0 0.0
2017-Jul-18 20:30N 52°24' E 004°49'0 0.0
2017-Jul-18 20:00N 52°24' E 004°49'0 0.0
2017-Jul-18 19:30N 52°24' E 004°49'0 0.0
2017-Jul-18 19:00N 52°24' E 004°49'0 0.0
2017-Jul-18 18:29N 52°24' E 004°49'0 0.0
2017-Jul-18 17:59N 52°24' E 004°49'0 0.0
2017-Jul-18 17:29N 52°24' E 004°49'0 0.0
2017-Jul-18 16:59N 52°24' E 004°49'0 0.0
2017-Jul-18 16:26N 52°24' E 004°49'0 0.0
2017-Jul-18 15:58N 52°24' E 004°49'0 0.0
2017-Jul-18 15:28N 52°24' E 004°49'0 0.0
2017-Jul-18 14:58N 52°24' E 004°49'0 0.0
2017-Jul-18 13:58N 52°24' E 004°49'0 0.0
2017-Jul-18 13:24N 52°24' E 004°49'0 0.0
2017-Jul-18 12:59N 52°24' E 004°49'0 0.0
2017-Jul-18 12:30N 52°24' E 004°49'0 0.0
2017-Jul-18 11:57N 52°24' E 004°49'0 0.0
2017-Jul-18 11:29N 52°24' E 004°49'0 0.0
2017-Jul-18 10:59N 52°24' E 004°49'0 0.0
2017-Jul-18 10:29N 52°24' E 004°49'0 0.0
2017-Jul-18 09:59N 52°24' E 004°49'0 0.0
2017-Jul-18 09:29N 52°24' E 004°49'0 0.0
2017-Jul-18 08:52N 52°24' E 004°49'0 0.0
2017-Jul-18 08:25N 52°24' E 004°49'0 0.0
2017-Jul-18 07:58N 52°24' E 004°49'0 0.0
2017-Jul-18 07:25N 52°24' E 004°49'0 0.0
2017-Jul-18 07:01N 52°24' E 004°49'0 0.3
2017-Jul-18 06:30N 52°24' E 004°49'3 6.3
2017-Jul-18 06:00N 52°26' E 004°45'5 9.3
2017-Jul-18 05:30N 52°28' E 004°38'1 2.5
2017-Jul-18 05:00N 52°28' E 004°36'3 5.1
2017-Jul-18 04:30N 52°28' E 004°32'4 8.9
2017-Jul-18 04:00N 52°28' E 004°24'510.9
2017-Jul-18 03:30N 52°28' E 004°16'611.4
2017-Jul-18 03:00N 52°28' E 004°06'611.7
2017-Jul-18 02:30N 52°27' E 003°57'611.7
2017-Jul-18 02:00N 52°26' E 003°47'611.3
2017-Jul-18 01:30N 52°26' E 003°38'611.8
2017-Jul-18 01:00N 52°27' E 003°29'611.9
2017-Jul-18 00:30N 52°30' E 003°20'612.3
2017-Jul-18 00:00N 52°35' E 003°14'612.1
2017-Jul-17 23:29N 52°41' E 003°10'611.8
2017-Jul-17 22:59N 52°46' E 003°08'611.5
2017-Jul-17 22:28N 52°52' E 003°05'1411.0
2017-Jul-17 21:11N 53°05' E 002°55'311.2
2017-Jul-17 20:55N 53°07' E 002°52'410.8
2017-Jul-17 20:30N 53°11' E 002°48'710.8
2017-Jul-17 19:54N 53°16' E 002°42'810.5
2017-Jul-17 19:09N 53°23' E 002°36'510.8
2017-Jul-17 18:41N 53°28' E 002°32'27811.6
2017-Jul-16 18:47N 57°29' W 001°31'513.3
2017-Jul-16 18:25N 57°33' W 001°36'7012.4
2017-Jul-16 12:48N 58°32' W 002°47'413.0
2017-Jul-16 12:30N 58°35' W 002°51'714.3
2017-Jul-16 12:00N 58°40' W 003°00'914.2
2017-Jul-16 11:23N 58°44' W 003°16'611.7
2017-Jul-16 10:51N 58°46' W 003°27'512.2
2017-Jul-16 10:25N 58°49' W 003°36'  
Track history (hours):
 
Tides and Currents Weather Stations Pressure Air Temp Water Temp Dewpoint Dewpoint Depression Visibility Wind Speed Wind Dir Waves Ship Positions

Flinterborg

Last reported at 2017-Jul-23 00:35 UTC. Time now 2017-Jul-24 02:30 UTC.
Position N 49°34' W 003°59'.

Length 111 m; draft 6.4 m.

Type: Cargo ship. MMSI: 245433000.

Date/timePositionNaut miles runAvg speedWind from/ knotsBaromVisibWave heightAir tempDewpointWater temp
2017-Jul-23 00:35N 49°34' W 003°59'111.1
2017-Jul-23 00:30N 49°34' W 003°57'611.3
2017-Jul-22 23:59N 49°37' W 003°50'611.5
2017-Jul-22 23:30N 49°40' W 003°42'611.6
2017-Jul-22 23:00N 49°43' W 003°35'611.3
2017-Jul-22 22:30N 49°46' W 003°27'510.7
2017-Jul-22 22:01N 49°48' W 003°20'510.2
2017-Jul-22 21:30N 49°51' W 003°13'5 9.5
2017-Jul-22 20:57N 49°54' W 003°06'4 9.0
2017-Jul-22 20:30N 49°56' W 003°01'4 8.2
2017-Jul-22 20:00N 49°58' W 002°55'4 7.7
2017-Jul-22 19:30N 49°59' W 002°49'9610.3
2017-Jul-22 10:10N 50°27' W 000°25'210.3
2017-Jul-22 10:00N 50°27' W 000°23'5 9.9
2017-Jul-22 09:30N 50°29' W 000°15'5 9.4
2017-Jul-22 09:00N 50°30' W 000°08'4 8.8
2017-Jul-22 08:30N 50°32' W 000°02'4 8.4
2017-Jul-22 08:00N 50°33' E 000°05'4 8.2
2017-Jul-22 07:30N 50°34' E 000°11'4 8.2
2017-Jul-22 07:00N 50°35' E 000°17'8 8.8
2017-Jul-22 06:09N 50°38' E 000°28'2 9.8
2017-Jul-22 05:59N 50°38' E 000°31'510.2
2017-Jul-22 05:30N 50°40' E 000°38'510.7
2017-Jul-22 05:00N 50°43' E 000°45'2511.3
2017-Jul-22 02:47N 50°58' E 001°16'410.7
2017-Jul-22 02:25N 51°01' E 001°21'410.3
2017-Jul-22 02:00N 51°04' E 001°26'510.1
2017-Jul-22 01:30N 51°07' E 001°32'4 9.0
2017-Jul-22 01:00N 51°10' E 001°38'4 8.7
2017-Jul-22 00:30N 51°13' E 001°43'4 8.8
2017-Jul-22 00:00N 51°16' E 001°47'4 8.6
2017-Jul-21 23:30N 51°20' E 001°51'4 9.0
2017-Jul-21 23:01N 51°23' E 001°55'5 9.2
2017-Jul-21 22:31N 51°27' E 002°00'5 9.9
2017-Jul-21 22:01N 51°30' E 002°06'510.2
2017-Jul-21 21:31N 51°34' E 002°11'610.8
2017-Jul-21 20:57N 51°38' E 002°18'711.6
2017-Jul-21 20:22N 51°43' E 002°26'3511.7
2017-Jul-21 17:24N 52°02' E 003°13'820.4
2017-Jul-21 17:00N 52°03' E 003°27'4 7.7
2017-Jul-21 16:27N 52°03' E 003°33'4 8.1
2017-Jul-21 16:00N 52°03' E 003°39'611.1
2017-Jul-21 15:30N 52°03' E 003°48'5 9.7
2017-Jul-21 15:00N 52°02' E 003°56'611.2
2017-Jul-21 14:30N 51°59' E 004°04'611.2
2017-Jul-21 14:00N 51°56' E 004°12'510.0
2017-Jul-21 13:30N 51°54' E 004°19'3 6.2
2017-Jul-21 13:00N 51°54' E 004°24'0 0.0
2017-Jul-21 12:30N 51°54' E 004°24'0 0.0
2017-Jul-21 12:00N 51°54' E 004°24'0 0.0
2017-Jul-21 11:30N 51°54' E 004°24'0 0.0
2017-Jul-21 11:00N 51°54' E 004°24'0 0.0
2017-Jul-21 10:30N 51°54' E 004°24'0 0.0
2017-Jul-21 10:00N 51°54' E 004°24'0 0.0
2017-Jul-21 09:31N 51°54' E 004°24'0 0.0
2017-Jul-21 09:00N 51°54' E 004°24'0 0.0
2017-Jul-21 08:30N 51°54' E 004°24'0 0.0
2017-Jul-21 08:00N 51°54' E 004°24'0 0.0
2017-Jul-21 07:30N 51°54' E 004°24'0 0.2
2017-Jul-21 07:00N 51°54' E 004°24'0 0.2
2017-Jul-21 06:30N 51°54' E 004°24'0 0.0
2017-Jul-21 06:00N 51°54' E 004°24'0 0.0
2017-Jul-21 05:30N 51°54' E 004°24'0 0.0
2017-Jul-21 05:00N 51°54' E 004°24'0 0.0
2017-Jul-21 03:00N 51°54' E 004°24'0 0.0
2017-Jul-21 02:30N 51°54' E 004°24'0 0.0
2017-Jul-21 02:00N 51°54' E 004°24'0 0.0
2017-Jul-21 01:30N 51°54' E 004°24'0 0.0
2017-Jul-21 01:00N 51°54' E 004°24'0 0.0
2017-Jul-21 00:30N 51°54' E 004°24'0 0.0
2017-Jul-21 00:00N 51°54' E 004°24'0 0.0
2017-Jul-20 23:30N 51°54' E 004°24'0 0.0
2017-Jul-20 23:00N 51°54' E 004°24'0 0.0
2017-Jul-20 22:30N 51°54' E 004°24'0 0.0
2017-Jul-20 22:00N 51°54' E 004°24'0 0.0
2017-Jul-20 21:30N 51°54' E 004°24'0 0.0
2017-Jul-20 21:00N 51°54' E 004°24'0 0.0
2017-Jul-20 20:30N 51°54' E 004°24'0 0.0
2017-Jul-20 20:00N 51°54' E 004°24'0 0.0
2017-Jul-20 19:30N 51°54' E 004°24'0 0.0
2017-Jul-20 19:00N 51°54' E 004°24'0 0.0
2017-Jul-20 18:30N 51°54' E 004°24'0 0.0
2017-Jul-20 18:00N 51°54' E 004°24'0 0.0
2017-Jul-20 17:30N 51°54' E 004°24'0 0.0
2017-Jul-20 17:00N 51°54' E 004°24'0 0.0
2017-Jul-20 16:30N 51°54' E 004°24'0 0.0
2017-Jul-20 16:00N 51°54' E 004°24'0 0.0
2017-Jul-20 15:30N 51°54' E 004°24'0 0.0
2017-Jul-20 15:00N 51°54' E 004°24'0 0.0
2017-Jul-20 14:00N 51°54' E 004°24'0 0.0
2017-Jul-20 13:30N 51°54' E 004°24'0 0.0
2017-Jul-20 13:00N 51°54' E 004°24'0 0.0
2017-Jul-20 12:30N 51°54' E 004°24'0 0.0
2017-Jul-20 11:59N 51°54' E 004°24'0 0.0
2017-Jul-20 11:30N 51°54' E 004°24'0 0.0
2017-Jul-20 11:00N 51°54' E 004°24'0 0.0
2017-Jul-20 10:30N 51°54' E 004°24'0 0.0
2017-Jul-20 10:00N 51°54' E 004°24'0 0.0
2017-Jul-20 09:31N 51°54' E 004°24'0 0.0
2017-Jul-20 09:00N 51°54' E 004°24'0 0.0
2017-Jul-20 08:30N 51°54' E 004°24'0 0.0
2017-Jul-20 08:00N 51°54' E 004°24'0 0.0
2017-Jul-20 07:30N 51°54' E 004°24'0 0.0
2017-Jul-20 07:00N 51°54' E 004°24'0 0.0
2017-Jul-20 06:29N 51°54' E 004°24'0 0.0
2017-Jul-20 06:00N 51°54' E 004°24'0 0.0
2017-Jul-20 05:30N 51°54' E 004°24'0 0.0
2017-Jul-20 05:00N 51°54' E 004°24'0 0.0
2017-Jul-20 04:30N 51°54' E 004°24'0 0.0
2017-Jul-20 04:00N 51°54' E 004°24'0 0.0
2017-Jul-20 03:29N 51°54' E 004°24'0 0.0
2017-Jul-20 03:00N 51°54' E 004°24'0 0.0
2017-Jul-20 02:31N 51°54' E 004°24'0 0.0
2017-Jul-20 02:00N 51°54' E 004°24'0 0.0
2017-Jul-20 01:30N 51°54' E 004°24'0 0.0
2017-Jul-20 01:00N 51°54' E 004°24'0 0.0
2017-Jul-20 00:30N 51°54' E 004°24'0 0.0
2017-Jul-20 00:00N 51°54' E 004°24'0 0.0
2017-Jul-19 23:30N 51°54' E 004°24'0 0.0
2017-Jul-19 23:00N 51°54' E 004°24'0 0.0
2017-Jul-19 22:30N 51°54' E 004°24'0 0.0
2017-Jul-19 22:00N 51°54' E 004°24'0 0.0
2017-Jul-19 21:30N 51°54' E 004°24'0 0.0
2017-Jul-19 21:00N 51°54' E 004°24'0 0.0
2017-Jul-19 20:31N 51°54' E 004°24'0 0.0
2017-Jul-19 20:00N 51°54' E 004°24'0 0.4
2017-Jul-19 19:30N 51°54' E 004°24'3 6.9
2017-Jul-19 19:00N 51°54' E 004°18'510.5
2017-Jul-19 18:30N 51°57' E 004°11'5 9.4
2017-Jul-19 18:00N 51°59' E 004°04'511.1
2017-Jul-19 17:30N 52°00' E 003°56'610.8
2017-Jul-19 17:00N 52°01' E 003°47'1223.1
2017-Jul-19 16:30N 52°12' E 003°47'1 2.0
2017-Jul-19 16:00N 52°13' E 003°47'713.6
2017-Jul-19 15:30N 52°20' E 003°48'713.2
2017-Jul-19 15:00N 52°26' E 003°51'611.5
2017-Jul-19 14:30N 52°31' E 003°56'611.9
2017-Jul-19 13:59N 52°31' E 004°07'611.8
2017-Jul-19 13:30N 52°30' E 004°16'612.3
2017-Jul-19 13:00N 52°29' E 004°26'510.4
2017-Jul-19 12:30N 52°28' E 004°34'2 3.2
2017-Jul-19 12:00N 52°28' E 004°37'1 2.1
2017-Jul-19 11:30N 52°28' E 004°38'4 9.0
2017-Jul-19 11:00N 52°26' E 004°45'3 6.5
2017-Jul-19 10:31N 52°24' E 004°49'0 0.0
2017-Jul-19 10:00N 52°24' E 004°49'0 0.0
2017-Jul-19 09:27N 52°24' E 004°49'0 0.0
2017-Jul-19 09:00N 52°24' E 004°49'0 0.0
2017-Jul-19 08:30N 52°24' E 004°49'0 0.0
2017-Jul-19 08:00N 52°24' E 004°49'0 0.0
2017-Jul-19 07:29N 52°24' E 004°49'0 0.0
2017-Jul-19 06:59N 52°24' E 004°49'0 0.0
2017-Jul-19 06:29N 52°24' E 004°49'0 0.0
2017-Jul-19 05:56N 52°24' E 004°49'0 0.0
2017-Jul-19 05:28N 52°24' E 004°49'0 0.0
2017-Jul-19 04:58N 52°24' E 004°49'0 0.0
2017-Jul-19 04:22N 52°24' E 004°49'0 0.0
2017-Jul-19 03:58N 52°24' E 004°49'0 0.0
2017-Jul-19 03:28N 52°24' E 004°49'0 0.0
2017-Jul-19 03:00N 52°24' E 004°49'0 0.0
2017-Jul-19 02:30N 52°24' E 004°49'0 0.0
2017-Jul-19 02:00N 52°24' E 004°49'0 0.0
2017-Jul-19 01:30N 52°24' E 004°49'0 0.0
2017-Jul-19 01:00N 52°24' E 004°49'0 0.0
2017-Jul-19 00:29N 52°24' E 004°49'0 0.0
2017-Jul-18 23:59N 52°24' E 004°49'0 0.0
2017-Jul-18 23:26N 52°24' E 004°49'0 0.0
2017-Jul-18 22:56N 52°24' E 004°49'0 0.0
2017-Jul-18 22:28N 52°24' E 004°49'0 0.0
2017-Jul-18 21:58N 52°24' E 004°49'0 0.0
2017-Jul-18 21:28N 52°24' E 004°49'0 0.0
2017-Jul-18 21:01N 52°24' E 004°49'0 0.0
2017-Jul-18 20:30N 52°24' E 004°49'0 0.0
2017-Jul-18 20:00N 52°24' E 004°49'0 0.0
2017-Jul-18 19:30N 52°24' E 004°49'0 0.0
2017-Jul-18 19:00N 52°24' E 004°49'0 0.0
2017-Jul-18 18:29N 52°24' E 004°49'0 0.0
2017-Jul-18 17:59N 52°24' E 004°49'0 0.0
2017-Jul-18 17:29N 52°24' E 004°49'0 0.0
2017-Jul-18 16:59N 52°24' E 004°49'0 0.0
2017-Jul-18 16:26N 52°24' E 004°49'0 0.0
2017-Jul-18 15:58N 52°24' E 004°49'0 0.0
2017-Jul-18 15:28N 52°24' E 004°49'0 0.0
2017-Jul-18 14:58N 52°24' E 004°49'0 0.0
2017-Jul-18 13:58N 52°24' E 004°49'0 0.0
2017-Jul-18 13:24N 52°24' E 004°49'0 0.0
2017-Jul-18 12:59N 52°24' E 004°49'0 0.0
2017-Jul-18 12:30N 52°24' E 004°49'0 0.0
2017-Jul-18 11:57N 52°24' E 004°49'0 0.0
2017-Jul-18 11:29N 52°24' E 004°49'0 0.0
2017-Jul-18 10:59N 52°24' E 004°49'0 0.0
2017-Jul-18 10:29N 52°24' E 004°49'0 0.0
2017-Jul-18 09:59N 52°24' E 004°49'0 0.0
2017-Jul-18 09:29N 52°24' E 004°49'0 0.0
2017-Jul-18 08:52N 52°24' E 004°49'0 0.0
2017-Jul-18 08:25N 52°24' E 004°49'0 0.0
2017-Jul-18 07:58N 52°24' E 004°49'0 0.0
2017-Jul-18 07:25N 52°24' E 004°49'0 0.0
2017-Jul-18 07:01N 52°24' E 004°49'0 0.3
2017-Jul-18 06:30N 52°24' E 004°49'3 6.3
2017-Jul-18 06:00N 52°26' E 004°45'5 9.3
2017-Jul-18 05:30N 52°28' E 004°38'1 2.5
2017-Jul-18 05:00N 52°28' E 004°36'3 5.1
2017-Jul-18 04:30N 52°28' E 004°32'4 8.9
2017-Jul-18 04:00N 52°28' E 004°24'510.9
2017-Jul-18 03:30N 52°28' E 004°16'611.4
2017-Jul-18 03:00N 52°28' E 004°06'611.7
2017-Jul-18 02:30N 52°27' E 003°57'611.7
2017-Jul-18 02:00N 52°26' E 003°47'611.3
2017-Jul-18 01:30N 52°26' E 003°38'611.8
2017-Jul-18 01:00N 52°27' E 003°29'611.9
2017-Jul-18 00:30N 52°30' E 003°20'612.3
2017-Jul-18 00:00N 52°35' E 003°14'612.1
2017-Jul-17 23:29N 52°41' E 003°10'611.8
2017-Jul-17 22:59N 52°46' E 003°08'611.5
2017-Jul-17 22:28N 52°52' E 003°05'1411.0
2017-Jul-17 21:11N 53°05' E 002°55'311.2
2017-Jul-17 20:55N 53°07' E 002°52'410.8
2017-Jul-17 20:30N 53°11' E 002°48'710.8
2017-Jul-17 19:54N 53°16' E 002°42'810.5
2017-Jul-17 19:09N 53°23' E 002°36'510.8
2017-Jul-17 18:41N 53°28' E 002°32'27811.6
2017-Jul-16 18:47N 57°29' W 001°31'513.3
2017-Jul-16 18:25N 57°33' W 001°36'7012.4
2017-Jul-16 12:48N 58°32' W 002°47'413.0
2017-Jul-16 12:30N 58°35' W 002°51'714.3
2017-Jul-16 12:00N 58°40' W 003°00'914.2
2017-Jul-16 11:23N 58°44' W 003°16'611.7
2017-Jul-16 10:51N 58°46' W 003°27'512.2
2017-Jul-16 10:25N 58°49' W 003°36'  

Dump ship's entire track history